Time;durP1;ratioP1;P1;durP2;ratioP2;P2;SDS_P1;SDS_P2;PMS_P1;PMS_P2;Temp;Humidity;BMP_temperature;BMP_pressure;BME280_temperature;BME280_humidity;BME280_pressure;Samples;Min_cycle;Max_cycle;Signal;HPM_P1;HPM_P2
2023/01/17 00:02:09;;;;;;;1.50;1.10;;;;;;;;;;5069701;28;20431;-68
2023/01/17 00:10:18;;;;;;;2.07;1.50;;;;;;;;;;5050254;28;20910;-68
2023/01/17 00:12:49;;;;;;;1.50;1.20;;;;;;;;;;5049800;28;20496;-68
2023/01/17 00:15:18;;;;;;;1.97;1.20;;;;;;;;;;5049760;28;20427;-67
2023/01/17 00:17:44;;;;;;;1.40;0.90;;;;;;;;;;5049911;28;20417;-68
2023/01/17 01:35:01;;;;;;;2.20;1.27;;;;;;;;;;5072461;28;20776;-66
2023/01/17 01:37:26;;;;;;;1.23;1.10;;;;;;;;;;5072508;28;20424;-67
2023/01/17 01:39:51;;;;;;;1.97;1.30;;;;;;;;;;5072556;28;20174;-66
2023/01/17 01:42:17;;;;;;;7.17;1.80;;;;;;;;;;5072070;28;20548;-66
2023/01/17 01:44:48;;;;;;;2.57;1.47;;;;;;;;;;5071531;28;20657;-66
2023/01/17 01:47:28;;;;;;;3.40;1.53;;;;;;;;;;5072016;28;20201;-66
2023/01/17 01:49:54;;;;;;;1.40;1.20;;;;;;;;;;5072216;28;20408;-65
2023/01/17 01:52:22;;;;;;;3.90;1.43;;;;;;;;;;5071392;28;20887;-66
2023/01/17 01:54:50;;;;;;;3.63;1.60;;;;;;;;;;5072059;28;20178;-66
2023/01/17 01:57:21;;;;;;;2.90;1.40;;;;;;;;;;5071972;28;20511;-66
2023/01/17 02:00:10;;;;;;;1.70;1.30;;;;;;;;;;5071967;28;20412;-66
2023/01/17 02:02:37;;;;;;;4.67;1.40;;;;;;;;;;5071803;28;20404;-66
2023/01/17 02:05:03;;;;;;;3.60;1.47;;;;;;;;;;5071823;28;21007;-67
2023/01/17 02:07:35;;;;;;;1.60;1.33;;;;;;;;;;5061189;28;20564;-66
2023/01/17 02:10:02;;;;;;;1.83;1.43;;;;;;;;;;5051739;28;20409;-66
2023/01/17 02:12:27;;;;;;;2.87;1.53;;;;;;;;;;5051788;28;20969;-66
2023/01/17 02:14:53;;;;;;;1.53;1.33;;;;;;;;;;5033895;28;20417;-66
2023/01/17 02:17:48;;;;;;;1.60;1.33;;;;;;;;;;5051571;28;20199;-66
2023/01/17 02:20:27;;;;;;;6.57;2.70;;;;;;;;;;5051429;28;20254;-66
2023/01/17 02:23:23;;;;;;;2.90;1.77;;;;;;;;;;5051646;28;20401;-66
2023/01/17 02:26:18;;;;;;;5.80;1.20;;;;;;;;;;5051204;28;20476;-66
2023/01/17 02:29:14;;;;;;;2.37;1.20;;;;;;;;;;5037794;28;20551;-66
2023/01/17 02:31:48;;;;;;;1.97;1.50;;;;;;;;;;5069836;28;20409;-66
2023/01/17 02:34:34;;;;;;;3.07;1.47;;;;;;;;;;5071301;28;20412;-67
2023/01/17 02:37:15;;;;;;;3.00;1.73;;;;;;;;;;5070808;28;20503;-66
2023/01/17 02:40:05;;;;;;;3.90;1.50;;;;;;;;;;5071116;28;20413;-67
2023/01/17 02:42:36;;;;;;;2.10;1.43;;;;;;;;;;5070730;28;20405;-65
2023/01/17 02:45:03;;;;;;;3.20;1.87;;;;;;;;;;5071224;28;20503;-67
2023/01/17 02:47:30;;;;;;;3.10;1.20;;;;;;;;;;5070799;28;20460;-66
2023/01/17 02:50:04;;;;;;;1.87;1.47;;;;;;;;;;5071011;28;20415;-66
2023/01/17 02:53:16;;;;;;;3.53;1.50;;;;;;;;;;5070617;28;20439;-66
2023/01/17 02:56:15;;;;;;;1.40;1.20;;;;;;;;;;5040191;28;20430;-66
2023/01/17 02:58:57;;;;;;;1.70;1.60;;;;;;;;;;5070555;28;20474;-66
2023/01/17 03:02:07;;;;;;;1.53;1.30;;;;;;;;;;5070494;28;20409;-66
2023/01/17 03:04:51;;;;;;;3.80;1.40;;;;;;;;;;5050041;28;20757;-66
2023/01/17 03:07:23;;;;;;;1.97;1.73;;;;;;;;;;5061562;28;20461;-67
2023/01/17 03:09:53;;;;;;;2.13;1.30;;;;;;;;;;5050735;28;20408;-66
2023/01/17 03:12:20;;;;;;;3.20;1.80;;;;;;;;;;5050412;28;20796;-66
2023/01/17 03:14:45;;;;;;;3.60;1.53;;;;;;;;;;5050753;28;20424;-66
2023/01/17 03:17:11;;;;;;;5.40;1.80;;;;;;;;;;5050627;28;20445;-65
2023/01/17 03:19:36;;;;;;;3.03;1.77;;;;;;;;;;5050602;28;20186;-65
2023/01/17 03:22:02;;;;;;;3.67;1.90;;;;;;;;;;5050136;28;20171;-65
2023/01/17 03:24:27;;;;;;;1.53;1.43;;;;;;;;;;5050571;28;20177;-67
2023/01/17 03:26:53;;;;;;;3.87;1.50;;;;;;;;;;5050724;28;20226;-66
2023/01/17 03:29:18;;;;;;;4.40;1.67;;;;;;;;;;5050644;28;20174;-66
2023/01/17 03:31:44;;;;;;;4.03;1.60;;;;;;;;;;5069614;28;20582;-66
2023/01/17 03:34:09;;;;;;;1.70;1.60;;;;;;;;;;5070862;28;20583;-66
2023/01/17 03:36:35;;;;;;;2.53;1.50;;;;;;;;;;5073267;28;20612;-66
2023/01/17 03:39:01;;;;;;;1.80;1.60;;;;;;;;;;5073047;28;20258;-67
2023/01/17 03:41:27;;;;;;;6.00;1.40;;;;;;;;;;5073069;28;20717;-67
2023/01/17 03:43:52;;;;;;;1.80;1.50;;;;;;;;;;5071382;28;20507;-66
2023/01/17 03:46:21;;;;;;;1.93;1.83;;;;;;;;;;5070360;28;20277;-66
2023/01/17 03:48:47;;;;;;;2.87;1.53;;;;;;;;;;5070677;28;20273;-66
2023/01/17 03:51:12;;;;;;;2.23;1.73;;;;;;;;;;5070067;28;20545;-66
2023/01/17 03:53:38;;;;;;;2.17;1.40;;;;;;;;;;5070328;28;20174;-66
2023/01/17 03:56:04;;;;;;;12.00;2.67;;;;;;;;;;5070871;28;20198;-66
2023/01/17 03:58:29;;;;;;;1.40;1.20;;;;;;;;;;5070717;28;20583;-66
2023/01/17 04:00:54;;;;;;;1.70;1.37;;;;;;;;;;5070399;28;20523;-66
2023/01/17 04:03:20;;;;;;;2.00;1.80;;;;;;;;;;5070607;28;20225;-66
2023/01/17 04:05:45;;;;;;;6.60;1.70;;;;;;;;;;5070339;28;20194;-66
2023/01/17 04:08:11;;;;;;;1.83;1.63;;;;;;;;;;5054487;28;20554;-66
2023/01/17 04:10:36;;;;;;;2.00;1.50;;;;;;;;;;5053860;28;20258;-66
2023/01/17 04:13:01;;;;;;;3.73;1.50;;;;;;;;;;5054358;28;20236;-66
2023/01/17 04:15:27;;;;;;;5.00;2.10;;;;;;;;;;5053848;28;20658;-66
2023/01/17 04:17:52;;;;;;;3.90;1.67;;;;;;;;;;5054271;28;20173;-65
2023/01/17 04:20:30;;;;;;;7.00;1.70;;;;;;;;;;5054118;28;20167;-65
2023/01/17 04:22:56;;;;;;;2.73;1.80;;;;;;;;;;5053824;28;20293;-65
2023/01/17 04:25:24;;;;;;;14.20;2.03;;;;;;;;;;5053760;28;20406;-65
2023/01/17 04:27:50;;;;;;;3.07;2.17;;;;;;;;;;5053755;28;20210;-65
2023/01/17 04:30:16;;;;;;;1.70;1.50;;;;;;;;;;5060757;28;20420;-66
2023/01/17 04:32:41;;;;;;;3.60;1.90;;;;;;;;;;5073358;28;20458;-65
2023/01/17 04:35:08;;;;;;;6.30;1.87;;;;;;;;;;5073448;28;20189;-67
2023/01/17 04:37:34;;;;;;;1.93;1.70;;;;;;;;;;5073270;28;20735;-65
2023/01/17 04:39:59;;;;;;;4.60;2.10;;;;;;;;;;5073402;28;20408;-65
2023/01/17 04:42:24;;;;;;;2.70;1.97;;;;;;;;;;5073156;28;20173;-65
2023/01/17 04:44:50;;;;;;;4.70;1.70;;;;;;;;;;5073315;28;20174;-65
2023/01/17 04:47:15;;;;;;;1.87;1.47;;;;;;;;;;5073340;28;20781;-65
2023/01/17 04:49:40;;;;;;;3.13;1.40;;;;;;;;;;5073416;28;20185;-65
2023/01/17 04:52:06;;;;;;;5.17;2.40;;;;;;;;;;5073145;28;20185;-65
2023/01/17 04:54:31;;;;;;;6.07;3.83;;;;;;;;;;5073357;28;20257;-65
2023/01/17 04:56:57;;;;;;;26.27;6.03;;;;;;;;;;5073162;28;20206;-67
2023/01/17 04:59:22;;;;;;;5.50;3.13;;;;;;;;;;5073175;28;20312;-67
2023/01/17 05:01:48;;;;;;;4.30;2.00;;;;;;;;;;5072660;28;20315;-66
2023/01/17 05:04:14;;;;;;;4.80;2.40;;;;;;;;;;5073064;28;20202;-66
2023/01/17 05:06:39;;;;;;;3.17;2.67;;;;;;;;;;5072908;28;20566;-66
2023/01/17 05:09:05;;;;;;;4.73;2.10;;;;;;;;;;5072647;28;20460;-66
2023/01/17 05:11:31;;;;;;;4.23;2.40;;;;;;;;;;5072524;28;20261;-66
2023/01/17 05:13:57;;;;;;;3.37;1.97;;;;;;;;;;5072704;28;20167;-66
2023/01/17 05:16:22;;;;;;;1.77;1.67;;;;;;;;;;5072301;28;20535;-67
2023/01/17 05:18:51;;;;;;;5.43;2.17;;;;;;;;;;5072688;28;20269;-66
2023/01/17 05:21:17;;;;;;;3.10;2.00;;;;;;;;;;5071229;28;20207;-66
2023/01/17 05:23:42;;;;;;;3.77;2.83;;;;;;;;;;5072685;28;20479;-66
2023/01/17 05:26:08;;;;;;;4.20;2.20;;;;;;;;;;5072618;28;20190;-66
2023/01/17 05:28:33;;;;;;;2.33;1.87;;;;;;;;;;5072588;28;20658;-65
2023/01/17 05:30:58;;;;;;;2.43;1.93;;;;;;;;;;5072252;28;20202;-67
2023/01/17 05:33:24;;;;;;;3.27;2.17;;;;;;;;;;5072684;28;20170;-66
2023/01/17 05:35:49;;;;;;;2.67;2.10;;;;;;;;;;5072352;28;20206;-66
2023/01/17 05:38:15;;;;;;;3.50;2.20;;;;;;;;;;5072396;28;20618;-65
2023/01/17 05:40:41;;;;;;;5.30;2.33;;;;;;;;;;5071880;28;20673;-65
2023/01/17 05:43:07;;;;;;;7.20;2.83;;;;;;;;;;5072150;28;20178;-67
2023/01/17 05:45:33;;;;;;;4.73;3.00;;;;;;;;;;5072112;28;20225;-66
2023/01/17 05:47:58;;;;;;;10.20;4.37;;;;;;;;;;5072511;28;20860;-68
2023/01/17 05:50:31;;;;;;;4.70;3.27;;;;;;;;;;5071848;28;20174;-66
2023/01/17 05:52:59;;;;;;;5.27;2.07;;;;;;;;;;5072221;28;20259;-67
2023/01/17 05:55:26;;;;;;;2.73;1.83;;;;;;;;;;5072088;28;20417;-68
2023/01/17 05:57:52;;;;;;;4.70;2.10;;;;;;;;;;5071985;28;20454;-67
2023/01/17 06:00:18;;;;;;;6.93;2.30;;;;;;;;;;5071844;28;20413;-67
2023/01/17 06:02:45;;;;;;;3.10;2.37;;;;;;;;;;5069369;28;20439;-66
2023/01/17 06:05:10;;;;;;;3.10;2.07;;;;;;;;;;5071370;28;20901;-66
2023/01/17 06:07:36;;;;;;;8.13;3.00;;;;;;;;;;5059831;28;20461;-68
2023/01/17 06:10:01;;;;;;;2.87;2.47;;;;;;;;;;5051581;28;20175;-67
2023/01/17 06:12:27;;;;;;;2.23;1.80;;;;;;;;;;5051725;28;20234;-66
2023/01/17 06:14:52;;;;;;;13.77;2.87;;;;;;;;;;5052996;28;20274;-67
2023/01/17 06:17:18;;;;;;;2.30;2.00;;;;;;;;;;5052139;28;20199;-68
2023/01/17 06:19:44;;;;;;;3.87;2.67;;;;;;;;;;5052554;28;20270;-67
2023/01/17 06:22:10;;;;;;;2.57;2.00;;;;;;;;;;5051761;28;20370;-69
2023/01/17 06:24:35;;;;;;;4.43;2.77;;;;;;;;;;5063762;28;20436;-66
2023/01/17 06:27:01;;;;;;;2.80;2.47;;;;;;;;;;5058960;28;20261;-68
2023/01/17 06:29:26;;;;;;;2.63;1.70;;;;;;;;;;5052169;28;20667;-68
2023/01/17 06:31:51;;;;;;;2.20;2.00;;;;;;;;;;5065454;28;20206;-67
2023/01/17 06:34:17;;;;;;;3.13;2.53;;;;;;;;;;5067284;28;20178;-67
2023/01/17 06:36:43;;;;;;;4.73;2.10;;;;;;;;;;5067089;28;20233;-66
2023/01/17 06:39:11;;;;;;;10.40;2.40;;;;;;;;;;5069380;28;20181;-68
2023/01/17 06:41:36;;;;;;;3.70;2.40;;;;;;;;;;5056070;28;20265;-66
2023/01/17 06:44:02;;;;;;;3.70;2.73;;;;;;;;;;5059526;28;20988;-66
2023/01/17 06:46:28;;;;;;;5.60;3.20;;;;;;;;;;5059321;28;20251;-66
2023/01/17 06:48:53;;;;;;;4.43;3.10;;;;;;;;;;5072404;28;20198;-66
2023/01/17 06:51:19;;;;;;;7.00;3.40;;;;;;;;;;5063468;28;20188;-65
2023/01/17 06:53:46;;;;;;;6.07;3.10;;;;;;;;;;5061324;28;20236;-66
2023/01/17 06:56:11;;;;;;;5.50;3.43;;;;;;;;;;5068680;28;20234;-66
2023/01/17 06:58:37;;;;;;;29.47;5.03;;;;;;;;;;5053224;28;20468;-67
2023/01/17 07:01:11;;;;;;;4.63;3.13;;;;;;;;;;5051434;28;20655;-66
2023/01/17 07:03:36;;;;;;;31.30;7.60;;;;;;;;;;5067000;28;20167;-67
2023/01/17 07:06:03;;;;;;;22.50;5.13;;;;;;;;;;5060925;28;21590;-66
2023/01/17 07:08:29;;;;;;;7.73;3.10;;;;;;;;;;5063720;28;20464;-66
2023/01/17 07:11:00;;;;;;;7.83;3.33;;;;;;;;;;5070772;28;20408;-66
2023/01/17 07:13:26;;;;;;;11.23;2.57;;;;;;;;;;5070679;28;20541;-66
2023/01/17 07:15:52;;;;;;;4.37;2.70;;;;;;;;;;5060932;28;20543;-65
2023/01/17 07:18:22;;;;;;;4.50;2.83;;;;;;;;;;5065439;28;20888;-66
2023/01/17 07:20:51;;;;;;;4.00;2.53;;;;;;;;;;5065185;28;20170;-66
2023/01/17 07:23:18;;;;;;;3.53;3.23;;;;;;;;;;5080645;28;20420;-66
2023/01/17 07:25:50;;;;;;;3.20;2.60;;;;;;;;;;5088290;28;20899;-66
2023/01/17 07:28:15;;;;;;;3.27;2.63;;;;;;;;;;5068044;28;20503;-65
2023/01/17 07:30:40;;;;;;;3.50;2.63;;;;;;;;;;5069386;28;20448;-66
2023/01/17 07:33:07;;;;;;;2.90;2.20;;;;;;;;;;5069383;28;20170;-66
2023/01/17 07:35:33;;;;;;;5.13;2.60;;;;;;;;;;5069188;28;20194;-67
2023/01/17 07:37:58;;;;;;;4.20;2.17;;;;;;;;;;5067917;28;20419;-68
2023/01/17 07:40:24;;;;;;;6.73;2.80;;;;;;;;;;5067853;28;20178;-66
2023/01/17 07:42:49;;;;;;;3.40;2.97;;;;;;;;;;5063579;28;20343;-68
2023/01/17 07:45:15;;;;;;;4.00;2.93;;;;;;;;;;5069111;28;20631;-66
2023/01/17 07:47:41;;;;;;;5.07;3.60;;;;;;;;;;5067157;28;20214;-66
2023/01/17 07:50:08;;;;;;;4.70;2.97;;;;;;;;;;5061836;28;20179;-66
2023/01/17 07:52:33;;;;;;;6.33;2.73;;;;;;;;;;5065528;28;20174;-66
2023/01/17 07:54:59;;;;;;;6.30;3.53;;;;;;;;;;5069391;28;20426;-67
2023/01/17 07:57:24;;;;;;;9.87;3.37;;;;;;;;;;5069214;28;20520;-65
2023/01/17 07:59:51;;;;;;;5.00;3.57;;;;;;;;;;5067405;28;20188;-67
2023/01/17 08:02:18;;;;;;;6.43;3.50;;;;;;;;;;5056196;28;20187;-65
2023/01/17 08:04:44;;;;;;;11.67;4.23;;;;;;;;;;5064274;28;20919;-66
2023/01/17 08:07:10;;;;;;;40.03;7.03;;;;;;;;;;5061036;28;20441;-67
2023/01/17 08:09:35;;;;;;;6.67;2.73;;;;;;;;;;5059722;28;20217;-66
2023/01/17 08:12:01;;;;;;;4.80;2.20;;;;;;;;;;5066082;28;20181;-67
2023/01/17 08:14:26;;;;;;;12.67;3.23;;;;;;;;;;5058915;28;20174;-66
2023/01/17 08:16:52;;;;;;;7.87;3.40;;;;;;;;;;5049429;28;20253;-67
2023/01/17 08:19:18;;;;;;;5.87;3.00;;;;;;;;;;5052871;28;20462;-66
2023/01/17 08:21:44;;;;;;;3.80;2.80;;;;;;;;;;5089237;28;20181;-67
2023/01/17 08:24:13;;;;;;;5.67;3.20;;;;;;;;;;5070233;28;20189;-66
2023/01/17 08:26:39;;;;;;;4.43;3.43;;;;;;;;;;5069261;28;20190;-67
2023/01/17 08:29:04;;;;;;;7.80;2.73;;;;;;;;;;5066858;28;20472;-67
2023/01/17 08:31:32;;;;;;;2.77;2.53;;;;;;;;;;5047823;28;20167;-67
2023/01/17 08:33:57;;;;;;;3.50;3.20;;;;;;;;;;5065828;28;20179;-67
2023/01/17 08:36:27;;;;;;;5.40;3.30;;;;;;;;;;5069184;28;20428;-67
2023/01/17 08:38:53;;;;;;;4.63;3.03;;;;;;;;;;5057451;28;20231;-67
2023/01/17 08:41:20;;;;;;;5.90;2.80;;;;;;;;;;5063742;28;20425;-66
2023/01/17 08:43:49;;;;;;;9.13;3.30;;;;;;;;;;5069091;28;21249;-66
2023/01/17 08:46:16;;;;;;;6.93;3.00;;;;;;;;;;5069216;28;20511;-66
2023/01/17 08:48:42;;;;;;;12.20;2.93;;;;;;;;;;5064298;28;20529;-68
2023/01/17 08:51:07;;;;;;;5.97;2.50;;;;;;;;;;5062901;28;20417;-66
2023/01/17 08:53:33;;;;;;;3.60;2.40;;;;;;;;;;5068688;28;20170;-67
2023/01/17 08:56:00;;;;;;;4.63;1.93;;;;;;;;;;5061249;28;20531;-67
2023/01/17 08:58:26;;;;;;;3.50;2.53;;;;;;;;;;5059044;28;20179;-67
2023/01/17 09:00:52;;;;;;;3.00;2.50;;;;;;;;;;5060536;28;20476;-67
2023/01/17 09:03:17;;;;;;;4.20;2.57;;;;;;;;;;5061414;28;20471;-66
2023/01/17 09:05:43;;;;;;;12.37;3.47;;;;;;;;;;5067974;28;20275;-66
2023/01/17 09:08:08;;;;;;;3.23;2.53;;;;;;;;;;5070254;28;20242;-66
2023/01/17 09:10:34;;;;;;;3.67;2.80;;;;;;;;;;5071683;28;20171;-67
2023/01/17 09:12:59;;;;;;;5.33;3.33;;;;;;;;;;5070651;28;20278;-69
2023/01/17 09:15:25;;;;;;;5.50;3.27;;;;;;;;;;5071863;28;20209;-67
2023/01/17 09:17:54;;;;;;;5.73;3.67;;;;;;;;;;5070121;28;20180;-67
2023/01/17 09:20:19;;;;;;;4.03;3.63;;;;;;;;;;5071532;28;20175;-67
2023/01/17 09:22:45;;;;;;;4.50;3.27;;;;;;;;;;5068795;28;20996;-67
2023/01/17 09:25:10;;;;;;;4.23;3.83;;;;;;;;;;5071678;28;20585;-66
2023/01/17 09:27:35;;;;;;;3.90;3.47;;;;;;;;;;5071617;28;20290;-67
2023/01/17 09:30:01;;;;;;;9.93;3.90;;;;;;;;;;5069461;28;20178;-66
2023/01/17 09:32:27;;;;;;;5.60;4.03;;;;;;;;;;5068452;28;20185;-66
2023/01/17 09:34:52;;;;;;;9.70;5.33;;;;;;;;;;5071905;28;20470;-67
2023/01/17 09:37:18;;;;;;;5.90;4.80;;;;;;;;;;5062841;28;20238;-67
2023/01/17 09:39:43;;;;;;;9.30;5.30;;;;;;;;;;5071648;28;20193;-67
2023/01/17 09:42:17;;;;;;;6.80;5.27;;;;;;;;;;5065282;28;20189;-67
2023/01/17 09:44:50;;;;;;;7.17;4.80;;;;;;;;;;5072002;28;20192;-66
2023/01/17 09:47:33;;;;;;;7.50;5.43;;;;;;;;;;5071481;28;20460;-67
2023/01/17 09:50:06;;;;;;;7.33;4.90;;;;;;;;;;5070881;28;20412;-66
2023/01/17 09:52:32;;;;;;;7.00;4.27;;;;;;;;;;5065183;28;20437;-67
2023/01/17 09:54:58;;;;;;;5.07;3.90;;;;;;;;;;5070973;28;20939;-66
2023/01/17 09:58:05;;;;;;;5.20;4.10;;;;;;;;;;5064599;28;20456;-67
2023/01/17 10:01:21;;;;;;;4.90;4.40;;;;;;;;;;5047453;28;20292;-68
2023/01/17 10:04:07;;;;;;;6.53;4.07;;;;;;;;;;5017182;28;20757;-67
2023/01/17 10:06:45;;;;;;;3.10;2.90;;;;;;;;;;5053548;28;20464;-66
2023/01/17 10:09:46;;;;;;;3.50;2.80;;;;;;;;;;5066964;28;21099;-66
2023/01/17 10:12:17;;;;;;;6.57;3.10;;;;;;;;;;5050656;28;20901;-66
2023/01/17 10:15:07;;;;;;;11.13;3.70;;;;;;;;;;5051092;28;20416;-67
2023/01/17 10:18:04;;;;;;;8.43;4.10;;;;;;;;;;5050588;28;20456;-67
2023/01/17 10:20:54;;;;;;;6.40;3.17;;;;;;;;;;5064201;28;20425;-67
2023/01/17 10:23:52;;;;;;;4.03;3.63;;;;;;;;;;5069631;28;20767;-67
2023/01/17 10:26:23;;;;;;;3.93;3.13;;;;;;;;;;5012836;28;20447;-67
2023/01/17 10:28:51;;;;;;;4.53;3.73;;;;;;;;;;5050608;28;20551;-67
2023/01/17 10:31:27;;;;;;;8.03;4.20;;;;;;;;;;5065851;28;20431;-67
2023/01/17 10:33:55;;;;;;;8.20;4.03;;;;;;;;;;5070979;28;20422;-67
2023/01/17 10:36:30;;;;;;;10.93;5.10;;;;;;;;;;5070945;28;20443;-66
2023/01/17 10:39:03;;;;;;;7.13;3.67;;;;;;;;;;5070713;28;20412;-67
2023/01/17 10:41:33;;;;;;;7.27;4.17;;;;;;;;;;5070200;28;20420;-66
2023/01/17 10:44:34;;;;;;;7.33;4.17;;;;;;;;;;5070514;28;20927;-68
2023/01/17 10:47:03;;;;;;;3.40;3.10;;;;;;;;;;5070392;28;20411;-66
2023/01/17 10:49:29;;;;;;;9.13;2.90;;;;;;;;;;5062726;28;20566;-67
2023/01/17 10:52:13;;;;;;;8.73;3.13;;;;;;;;;;5050132;28;20906;-67
2023/01/17 10:55:05;;;;;;;3.20;2.90;;;;;;;;;;5050373;28;20220;-66
2023/01/17 10:57:42;;;;;;;3.63;3.00;;;;;;;;;;5050491;28;20426;-67
2023/01/17 11:00:49;;;;;;;4.80;2.97;;;;;;;;;;5050505;28;20424;-66
2023/01/17 11:03:19;;;;;;;2.80;2.53;;;;;;;;;;5035920;28;20413;-68
2023/01/17 11:06:07;;;;;;;3.23;2.60;;;;;;;;;;5050019;28;20524;-67
2023/01/17 11:08:57;;;;;;;3.20;2.60;;;;;;;;;;5049253;28;20464;-67
2023/01/17 11:11:32;;;;;;;6.00;3.37;;;;;;;;;;5050073;28;20413;-66
2023/01/17 11:14:05;;;;;;;2.83;1.93;;;;;;;;;;5067774;28;20469;-66
2023/01/17 11:16:31;;;;;;;4.90;2.80;;;;;;;;;;5069696;28;20448;-66
2023/01/17 11:19:06;;;;;;;3.03;2.57;;;;;;;;;;5069469;28;20473;-66
2023/01/17 11:21:32;;;;;;;11.03;3.57;;;;;;;;;;5069934;28;20420;-67
2023/01/17 11:24:09;;;;;;;5.43;2.37;;;;;;;;;;5063949;28;20435;-67
2023/01/17 11:26:35;;;;;;;11.67;3.03;;;;;;;;;;5056551;28;20479;-66
2023/01/17 11:29:14;;;;;;;17.70;3.77;;;;;;;;;;5063577;28;20448;-66
2023/01/17 11:31:40;;;;;;;9.20;2.23;;;;;;;;;;5069338;28;20511;-65
2023/01/17 11:34:14;;;;;;;4.23;2.23;;;;;;;;;;5069859;28;20485;-67
2023/01/17 11:36:40;;;;;;;1.90;1.80;;;;;;;;;;5069982;28;20720;-67
2023/01/17 11:39:24;;;;;;;4.07;2.00;;;;;;;;;;5069439;28;20479;-66
2023/01/17 11:41:51;;;;;;;3.97;1.87;;;;;;;;;;5069887;28;20193;-66
2023/01/17 11:44:31;;;;;;;4.50;1.70;;;;;;;;;;5063528;28;20402;-67
2023/01/17 11:47:06;;;;;;;5.23;2.50;;;;;;;;;;5050214;28;20429;-68
2023/01/17 11:49:31;;;;;;;3.67;2.50;;;;;;;;;;5049812;28;20531;-67
2023/01/17 11:51:56;;;;;;;4.13;2.70;;;;;;;;;;5049430;28;20429;-66
2023/01/17 11:54:27;;;;;;;3.97;1.80;;;;;;;;;;5060100;28;20178;-67
2023/01/17 11:56:57;;;;;;;5.57;1.83;;;;;;;;;;5060663;28;20198;-66
2023/01/17 11:59:25;;;;;;;3.30;2.10;;;;;;;;;;5059327;28;20421;-66
2023/01/17 12:01:59;;;;;;;3.10;1.97;;;;;;;;;;5064894;28;20463;-67
2023/01/17 12:04:38;;;;;;;3.23;1.83;;;;;;;;;;5069453;28;20608;-66
2023/01/17 12:07:03;;;;;;;7.33;2.40;;;;;;;;;;5064486;28;20441;-67
2023/01/17 12:09:39;;;;;;;4.20;2.30;;;;;;;;;;5049421;28;20835;-67
2023/01/17 12:15:20;;;;;;;3.20;2.03;;;;;;;;;;5049271;28;20536;-67
2023/01/17 12:18:27;;;;;;;6.33;2.70;;;;;;;;;;5048978;28;20409;-67
2023/01/17 12:21:13;;;;;;;8.63;2.77;;;;;;;;;;5048875;28;20429;-66
2023/01/17 12:23:54;;;;;;;3.03;2.57;;;;;;;;;;5049707;28;20432;-68
2023/01/17 12:26:30;;;;;;;5.77;2.50;;;;;;;;;;5049325;28;20449;-66
2023/01/17 12:29:08;;;;;;;4.43;2.60;;;;;;;;;;5050046;28;20782;-66
2023/01/17 12:31:37;;;;;;;5.23;2.67;;;;;;;;;;5070944;28;20408;-66
2023/01/17 12:34:23;;;;;;;3.10;2.20;;;;;;;;;;5073425;28;20491;-67
2023/01/17 12:36:53;;;;;;;9.13;2.60;;;;;;;;;;5072717;28;20430;-66
2023/01/17 12:39:24;;;;;;;7.80;2.03;;;;;;;;;;5072982;28;20396;-66
2023/01/17 12:42:32;;;;;;;4.83;2.10;;;;;;;;;;5054786;28;20414;-66
2023/01/17 12:45:08;;;;;;;5.30;2.53;;;;;;;;;;5073347;28;20420;-66
2023/01/17 12:47:41;;;;;;;2.10;1.90;;;;;;;;;;5072604;28;20548;-67
2023/01/17 12:50:37;;;;;;;2.67;2.07;;;;;;;;;;5073033;28;20412;-66
2023/01/17 12:53:17;;;;;;;2.50;1.90;;;;;;;;;;5072903;28;20397;-67
2023/01/17 12:56:07;;;;;;;5.10;1.90;;;;;;;;;;5072425;28;20453;-66
2023/01/17 12:58:39;;;;;;;5.77;2.20;;;;;;;;;;5072527;28;20995;-66
2023/01/17 13:01:16;;;;;;;3.37;2.10;;;;;;;;;;5072320;28;20453;-67
2023/01/17 13:03:55;;;;;;;2.63;1.70;;;;;;;;;;5072852;28;20427;-66
2023/01/17 13:06:28;;;;;;;5.00;2.40;;;;;;;;;;5071501;28;20792;-66
2023/01/17 13:08:59;;;;;;;4.70;1.90;;;;;;;;;;5052547;28;20512;-66
2023/01/17 13:11:42;;;;;;;1.97;1.57;;;;;;;;;;5052068;28;20937;-68
2023/01/17 13:14:09;;;;;;;5.80;1.67;;;;;;;;;;5068347;28;20963;-67
2023/01/17 13:16:45;;;;;;;2.57;1.70;;;;;;;;;;5070537;28;20568;-69
2023/01/17 13:19:37;;;;;;;3.03;1.43;;;;;;;;;;5070044;28;20824;-69
2023/01/17 13:22:08;;;;;;;7.33;1.60;;;;;;;;;;5027328;28;20932;-68
2023/01/17 13:24:42;;;;;;;4.07;1.70;;;;;;;;;;5066521;28;20515;-68
2023/01/17 13:27:10;;;;;;;4.03;1.60;;;;;;;;;;5064276;28;20432;-69
2023/01/17 13:30:02;;;;;;;5.17;1.90;;;;;;;;;;5067373;28;20433;-69
2023/01/17 13:32:46;;;;;;;6.33;2.13;;;;;;;;;;5071302;28;21444;-68
2023/01/17 13:35:17;;;;;;;3.80;1.90;;;;;;;;;;5064974;28;20436;-68
2023/01/17 13:38:00;;;;;;;4.93;1.53;;;;;;;;;;5066713;28;20482;-68
2023/01/17 13:40:47;;;;;;;1.87;1.43;;;;;;;;;;5065272;28;20424;-69
2023/01/17 13:43:18;;;;;;;1.90;1.40;;;;;;;;;;5064137;28;20498;-68
2023/01/17 13:45:52;;;;;;;3.50;1.70;;;;;;;;;;5062833;28;20920;-67
2023/01/17 13:48:17;;;;;;;2.83;2.00;;;;;;;;;;5070787;28;20448;-66
2023/01/17 13:50:54;;;;;;;2.90;1.47;;;;;;;;;;5060456;28;20413;-69
2023/01/17 13:53:26;;;;;;;1.50;1.20;;;;;;;;;;5052053;28;20177;-69
2023/01/17 13:56:17;;;;;;;2.13;1.33;;;;;;;;;;5052119;28;20436;-67
2023/01/17 13:58:57;;;;;;;2.37;1.57;;;;;;;;;;5041317;28;20918;-68
2023/01/17 14:01:22;;;;;;;3.43;2.00;;;;;;;;;;5051802;28;20405;-68
2023/01/17 14:03:51;;;;;;;1.93;1.30;;;;;;;;;;5051551;28;20500;-69
2023/01/17 14:06:32;;;;;;;2.63;1.90;;;;;;;;;;5051956;28;20205;-67
2023/01/17 14:09:20;;;;;;;3.20;1.83;;;;;;;;;;5071395;28;20456;-69
2023/01/17 14:12:05;;;;;;;3.83;2.20;;;;;;;;;;5071126;28;20477;-66
2023/01/17 14:14:40;;;;;;;2.10;1.63;;;;;;;;;;5071627;28;20401;-68
2023/01/17 14:17:15;;;;;;;4.77;2.17;;;;;;;;;;5069426;28;20436;-67
2023/01/17 14:19:46;;;;;;;3.70;1.80;;;;;;;;;;5071305;28;20513;-69
2023/01/17 14:22:17;;;;;;;2.47;1.70;;;;;;;;;;5071069;28;20416;-67
2023/01/17 14:25:10;;;;;;;4.60;2.63;;;;;;;;;;5071025;28;20838;-69
2023/01/17 14:27:39;;;;;;;3.27;2.27;;;;;;;;;;5071334;28;20798;-68
2023/01/17 14:30:24;;;;;;;3.60;1.93;;;;;;;;;;5071126;28;20419;-68
2023/01/17 14:33:01;;;;;;;3.53;2.10;;;;;;;;;;5071576;28;20785;-68
2023/01/17 14:35:31;;;;;;;5.40;2.80;;;;;;;;;;5071149;28;20431;-67
2023/01/17 14:37:58;;;;;;;5.17;3.23;;;;;;;;;;5071071;28;20466;-68
2023/01/17 14:40:28;;;;;;;5.13;2.50;;;;;;;;;;5070347;28;20434;-68
2023/01/17 14:43:08;;;;;;;2.73;2.50;;;;;;;;;;5071286;28;20416;-68
2023/01/17 14:45:35;;;;;;;3.70;2.40;;;;;;;;;;5070842;28;20473;-68
2023/01/17 14:48:04;;;;;;;6.10;3.10;;;;;;;;;;5071068;28;20555;-68
2023/01/17 14:50:38;;;;;;;6.30;2.90;;;;;;;;;;5070666;28;20408;-67
2023/01/17 14:53:09;;;;;;;5.10;3.00;;;;;;;;;;5070900;28;20409;-68
2023/01/17 14:55:35;;;;;;;4.13;3.13;;;;;;;;;;5066957;28;20440;-69
2023/01/17 14:58:01;;;;;;;4.30;2.93;;;;;;;;;;5070907;28;20401;-68
2023/01/17 15:00:28;;;;;;;5.20;2.50;;;;;;;;;;5071198;28;20420;-67
2023/01/17 15:02:55;;;;;;;6.37;2.73;;;;;;;;;;5070880;28;20169;-67
2023/01/17 15:05:22;;;;;;;4.27;2.80;;;;;;;;;;5070868;28;20416;-67
2023/01/17 15:07:53;;;;;;;5.30;3.30;;;;;;;;;;5057625;28;20484;-67
2023/01/17 15:10:27;;;;;;;5.90;3.17;;;;;;;;;;5050520;28;20902;-67
2023/01/17 15:12:54;;;;;;;3.90;2.30;;;;;;;;;;5050724;28;20393;-67
2023/01/17 15:15:37;;;;;;;8.90;3.07;;;;;;;;;;5050218;28;20445;-68
2023/01/17 15:18:24;;;;;;;4.60;2.87;;;;;;;;;;5050437;28;20489;-65
2023/01/17 15:21:00;;;;;;;3.83;2.63;;;;;;;;;;5049897;28;20955;-67
2023/01/17 15:23:36;;;;;;;5.00;2.90;;;;;;;;;;5050340;28;20439;-66
2023/01/17 15:26:03;;;;;;;7.13;2.70;;;;;;;;;;5050315;28;20433;-66
2023/01/17 15:28:30;;;;;;;6.97;2.70;;;;;;;;;;5050563;28;20922;-67
2023/01/17 15:31:16;;;;;;;6.80;2.80;;;;;;;;;;5062560;28;20516;-66
2023/01/17 15:33:48;;;;;;;6.43;3.10;;;;;;;;;;5070387;28;20405;-67
2023/01/17 15:36:34;;;;;;;6.50;3.10;;;;;;;;;;5070379;28;20599;-67
2023/01/17 15:39:12;;;;;;;5.70;3.00;;;;;;;;;;5061670;28;20417;-69
2023/01/17 15:41:39;;;;;;;56.50;6.23;;;;;;;;;;5049741;28;20413;-68
2023/01/17 15:44:07;;;;;;;53.07;6.17;;;;;;;;;;5050141;28;20512;-68
2023/01/17 15:46:32;;;;;;;6.13;3.57;;;;;;;;;;5049954;28;20918;-69
2023/01/17 15:49:21;;;;;;;9.30;4.20;;;;;;;;;;5049526;28;20461;-67
2023/01/17 15:51:53;;;;;;;14.80;4.00;;;;;;;;;;5049708;28;20201;-66
2023/01/17 15:54:30;;;;;;;5.80;3.53;;;;;;;;;;5050015;28;20440;-67
2023/01/17 15:57:23;;;;;;;5.93;4.30;;;;;;;;;;5050240;28;20425;-66
2023/01/17 15:59:58;;;;;;;13.07;3.13;;;;;;;;;;5042931;28;20429;-66
2023/01/17 16:02:56;;;;;;;7.80;4.03;;;;;;;;;;5050027;28;20413;-66
2023/01/17 16:05:26;;;;;;;12.57;4.07;;;;;;;;;;5053287;28;20444;-66
2023/01/17 16:08:15;;;;;;;9.53;4.43;;;;;;;;;;5067764;28;20520;-67
2023/01/17 16:10:42;;;;;;;11.40;4.20;;;;;;;;;;5073624;28;20417;-67
2023/01/17 16:13:09;;;;;;;11.80;4.53;;;;;;;;;;5074114;28;20495;-68
2023/01/17 16:15:36;;;;;;;4.97;3.07;;;;;;;;;;5073745;28;20440;-69
2023/01/17 16:18:06;;;;;;;9.40;3.90;;;;;;;;;;5074431;28;20462;-67
2023/01/17 16:20:54;;;;;;;4.60;2.97;;;;;;;;;;5073388;28;20408;-67
2023/01/17 16:23:20;;;;;;;5.23;3.03;;;;;;;;;;5035781;28;20412;-70
2023/01/17 16:25:46;;;;;;;4.80;3.17;;;;;;;;;;5073704;28;21012;-68
2023/01/17 16:28:12;;;;;;;4.77;3.30;;;;;;;;;;5073799;28;20206;-69
2023/01/17 16:30:37;;;;;;;16.97;4.30;;;;;;;;;;5073224;28;20405;-70
2023/01/17 16:33:03;;;;;;;5.17;3.43;;;;;;;;;;5073700;28;20171;-68
2023/01/17 16:35:32;;;;;;;4.33;3.40;;;;;;;;;;5074019;28;20315;-70